sensor_id;sensor_type;location;lat;lon;timestamp;P1;durP1;ratioP1;P2;durP2;ratioP2
934;SDS011;454;53.254;10.400;2022-08-11T04:05:23;5.33;;;5.03;;
934;SDS011;454;53.254;10.400;2022-08-11T04:11:11;7.67;;;5.67;;
934;SDS011;454;53.254;10.400;2022-08-11T04:17:31;5.43;;;5.13;;
934;SDS011;454;53.254;10.400;2022-08-11T04:20:54;5.47;;;5.17;;
934;SDS011;454;53.254;10.400;2022-08-11T04:23:49;6.17;;;5.60;;
934;SDS011;454;53.254;10.400;2022-08-11T04:29:36;6.50;;;6.10;;
934;SDS011;454;53.254;10.400;2022-08-11T04:32:17;6.50;;;5.53;;
934;SDS011;454;53.254;10.400;2022-08-11T04:35:16;5.50;;;5.20;;
934;SDS011;454;53.254;10.400;2022-08-11T04:38:04;5.70;;;5.30;;
934;SDS011;454;53.254;10.400;2022-08-11T04:44:26;5.60;;;5.30;;
934;SDS011;454;53.254;10.400;2022-08-11T04:47:17;5.27;;;5.03;;
934;SDS011;454;53.254;10.400;2022-08-11T04:50:25;5.13;;;4.50;;
934;SDS011;454;53.254;10.400;2022-08-11T04:53:27;5.17;;;4.80;;
934;SDS011;454;53.254;10.400;2022-08-11T04:56:23;4.40;;;4.20;;
934;SDS011;454;53.254;10.400;2022-08-11T05:02:46;4.07;;;3.90;;
934;SDS011;454;53.254;10.400;2022-08-11T05:11:44;4.67;;;4.20;;
934;SDS011;454;53.254;10.400;2022-08-11T05:14:45;4.37;;;4.10;;
934;SDS011;454;53.254;10.400;2022-08-11T05:17:34;4.67;;;4.20;;
934;SDS011;454;53.254;10.400;2022-08-11T05:20:23;5.43;;;4.87;;
934;SDS011;454;53.254;10.400;2022-08-11T05:23:09;4.27;;;4.07;;
934;SDS011;454;53.254;10.400;2022-08-11T05:25:57;4.80;;;4.50;;
934;SDS011;454;53.254;10.400;2022-08-11T05:28:59;4.00;;;3.70;;
934;SDS011;454;53.254;10.400;2022-08-11T05:31:49;4.53;;;4.33;;
934;SDS011;454;53.254;10.400;2022-08-11T05:34:41;4.50;;;4.30;;
934;SDS011;454;53.254;10.400;2022-08-11T05:37:18;4.90;;;4.53;;
934;SDS011;454;53.254;10.400;2022-08-11T05:39:50;5.17;;;4.80;;
934;SDS011;454;53.254;10.400;2022-08-11T05:42:42;4.90;;;4.50;;
934;SDS011;454;53.254;10.400;2022-08-11T05:45:33;5.23;;;4.80;;
934;SDS011;454;53.254;10.400;2022-08-11T05:48:18;5.20;;;5.00;;
934;SDS011;454;53.254;10.400;2022-08-11T05:51:04;4.97;;;4.77;;
934;SDS011;454;53.254;10.400;2022-08-11T05:53:49;5.37;;;5.03;;
934;SDS011;454;53.254;10.400;2022-08-11T05:56:41;5.03;;;4.63;;
934;SDS011;454;53.254;10.400;2022-08-11T05:59:13;5.57;;;5.27;;
934;SDS011;454;53.254;10.400;2022-08-11T06:01:43;6.83;;;6.30;;
934;SDS011;454;53.254;10.400;2022-08-11T06:04:14;6.57;;;5.93;;
934;SDS011;454;53.254;10.400;2022-08-11T06:06:47;6.30;;;5.60;;
934;SDS011;454;53.254;10.400;2022-08-11T06:09:19;5.37;;;5.00;;
934;SDS011;454;53.254;10.400;2022-08-11T06:11:49;5.53;;;5.00;;
934;SDS011;454;53.254;10.400;2022-08-11T06:14:18;5.30;;;5.10;;
934;SDS011;454;53.254;10.400;2022-08-11T06:16:47;6.13;;;5.57;;
934;SDS011;454;53.254;10.400;2022-08-11T06:19:16;5.50;;;5.20;;
934;SDS011;454;53.254;10.400;2022-08-11T06:21:47;5.40;;;5.17;;
934;SDS011;454;53.254;10.400;2022-08-11T06:24:16;5.30;;;5.00;;
934;SDS011;454;53.254;10.400;2022-08-11T06:26:46;4.87;;;4.77;;
934;SDS011;454;53.254;10.400;2022-08-11T06:29:15;4.63;;;4.20;;
934;SDS011;454;53.254;10.400;2022-08-11T06:31:44;3.60;;;3.40;;
934;SDS011;454;53.254;10.400;2022-08-11T06:34:23;3.97;;;3.67;;
934;SDS011;454;53.254;10.400;2022-08-11T06:36:59;3.40;;;3.30;;
934;SDS011;454;53.254;10.400;2022-08-11T06:39:38;3.60;;;3.50;;
934;SDS011;454;53.254;10.400;2022-08-11T06:42:13;3.80;;;3.50;;
934;SDS011;454;53.254;10.400;2022-08-11T06:44:55;3.10;;;2.90;;
934;SDS011;454;53.254;10.400;2022-08-11T06:47:33;3.10;;;3.00;;
934;SDS011;454;53.254;10.400;2022-08-11T06:50:00;3.20;;;3.10;;
934;SDS011;454;53.254;10.400;2022-08-11T06:52:45;2.97;;;2.87;;
934;SDS011;454;53.254;10.400;2022-08-11T06:55:13;2.97;;;2.87;;
934;SDS011;454;53.254;10.400;2022-08-11T06:58:11;3.60;;;2.93;;
934;SDS011;454;53.254;10.400;2022-08-11T07:00:59;3.27;;;3.07;;
934;SDS011;454;53.254;10.400;2022-08-11T07:03:34;2.90;;;2.80;;
934;SDS011;454;53.254;10.400;2022-08-11T07:06:08;3.10;;;3.00;;
934;SDS011;454;53.254;10.400;2022-08-11T07:11:59;2.73;;;2.63;;
934;SDS011;454;53.254;10.400;2022-08-11T07:14:51;2.60;;;2.60;;
934;SDS011;454;53.254;10.400;2022-08-11T07:17:40;2.53;;;2.53;;
934;SDS011;454;53.254;10.400;2022-08-11T07:20:14;2.43;;;2.40;;
934;SDS011;454;53.254;10.400;2022-08-11T07:23:00;3.03;;;2.93;;
934;SDS011;454;53.254;10.400;2022-08-11T07:25:51;2.80;;;2.63;;
934;SDS011;454;53.254;10.400;2022-08-11T07:28:38;2.80;;;2.70;;
934;SDS011;454;53.254;10.400;2022-08-11T07:31:25;2.80;;;2.70;;
934;SDS011;454;53.254;10.400;2022-08-11T07:33:58;3.10;;;2.80;;
934;SDS011;454;53.254;10.400;2022-08-11T07:36:39;3.30;;;3.20;;
934;SDS011;454;53.254;10.400;2022-08-11T07:39:14;3.50;;;3.30;;
934;SDS011;454;53.254;10.400;2022-08-11T07:41:44;3.00;;;3.00;;
934;SDS011;454;53.254;10.400;2022-08-11T07:44:12;2.87;;;2.87;;
934;SDS011;454;53.254;10.400;2022-08-11T07:46:41;3.47;;;3.33;;
934;SDS011;454;53.254;10.400;2022-08-11T07:49:27;3.67;;;3.47;;
934;SDS011;454;53.254;10.400;2022-08-11T07:52:14;4.40;;;3.40;;
934;SDS011;454;53.254;10.400;2022-08-11T07:54:57;3.27;;;3.07;;
934;SDS011;454;53.254;10.400;2022-08-11T07:57:26;2.73;;;2.63;;
934;SDS011;454;53.254;10.400;2022-08-11T08:00:11;3.30;;;3.10;;
934;SDS011;454;53.254;10.400;2022-08-11T08:02:57;3.47;;;3.37;;
934;SDS011;454;53.254;10.400;2022-08-11T08:05:42;3.33;;;3.03;;
934;SDS011;454;53.254;10.400;2022-08-11T08:08:29;3.33;;;3.23;;
934;SDS011;454;53.254;10.400;2022-08-11T08:11:14;3.43;;;3.33;;
934;SDS011;454;53.254;10.400;2022-08-11T08:13:58;3.17;;;3.07;;
934;SDS011;454;53.254;10.400;2022-08-11T08:16:43;3.70;;;3.40;;
934;SDS011;454;53.254;10.400;2022-08-11T08:19:29;3.10;;;2.93;;
934;SDS011;454;53.254;10.400;2022-08-11T08:21:57;5.43;;;3.50;;
934;SDS011;454;53.254;10.400;2022-08-11T08:24:26;3.07;;;2.90;;
934;SDS011;454;53.254;10.400;2022-08-11T08:26:55;2.93;;;2.83;;
934;SDS011;454;53.254;10.400;2022-08-11T08:29:25;3.70;;;3.50;;
934;SDS011;454;53.254;10.400;2022-08-11T08:32:12;3.10;;;3.00;;
934;SDS011;454;53.254;10.400;2022-08-11T08:34:41;3.10;;;2.87;;
934;SDS011;454;53.254;10.400;2022-08-11T08:37:09;2.97;;;2.77;;
934;SDS011;454;53.254;10.400;2022-08-11T08:39:37;3.43;;;3.13;;
934;SDS011;454;53.254;10.400;2022-08-11T08:42:06;3.03;;;2.97;;
934;SDS011;454;53.254;10.400;2022-08-11T08:44:38;2.90;;;2.70;;
934;SDS011;454;53.254;10.400;2022-08-11T08:47:09;3.13;;;2.93;;
934;SDS011;454;53.254;10.400;2022-08-11T08:49:40;3.03;;;2.83;;
934;SDS011;454;53.254;10.400;2022-08-11T08:52:13;3.00;;;2.90;;
934;SDS011;454;53.254;10.400;2022-08-11T08:54:44;3.27;;;3.10;;
934;SDS011;454;53.254;10.400;2022-08-11T08:57:18;2.70;;;2.60;;
934;SDS011;454;53.254;10.400;2022-08-11T08:59:48;2.67;;;2.57;;
934;SDS011;454;53.254;10.400;2022-08-11T09:02:16;2.90;;;2.80;;
934;SDS011;454;53.254;10.400;2022-08-11T09:04:44;2.37;;;2.23;;
934;SDS011;454;53.254;10.400;2022-08-11T09:07:13;2.80;;;2.70;;
934;SDS011;454;53.254;10.400;2022-08-11T09:09:48;2.87;;;2.70;;
934;SDS011;454;53.254;10.400;2022-08-11T09:12:17;2.87;;;2.77;;
934;SDS011;454;53.254;10.400;2022-08-11T09:14:46;4.00;;;2.60;;
934;SDS011;454;53.254;10.400;2022-08-11T09:17:28;2.60;;;2.60;;
934;SDS011;454;53.254;10.400;2022-08-11T09:19:59;2.80;;;2.70;;
934;SDS011;454;53.254;10.400;2022-08-11T09:22:29;4.53;;;3.03;;
934;SDS011;454;53.254;10.400;2022-08-11T09:25:18;3.00;;;2.70;;
934;SDS011;454;53.254;10.400;2022-08-11T09:28:04;3.33;;;3.23;;
934;SDS011;454;53.254;10.400;2022-08-11T09:30:35;3.07;;;2.97;;
934;SDS011;454;53.254;10.400;2022-08-11T09:33:03;3.20;;;3.00;;
934;SDS011;454;53.254;10.400;2022-08-11T09:35:32;3.30;;;3.30;;
934;SDS011;454;53.254;10.400;2022-08-11T09:38:00;3.90;;;3.73;;
934;SDS011;454;53.254;10.400;2022-08-11T09:41:02;3.70;;;3.60;;
934;SDS011;454;53.254;10.400;2022-08-11T09:43:30;3.30;;;3.20;;
934;SDS011;454;53.254;10.400;2022-08-11T09:46:15;3.20;;;3.20;;
934;SDS011;454;53.254;10.400;2022-08-11T09:48:47;2.90;;;2.90;;
934;SDS011;454;53.254;10.400;2022-08-11T09:51:17;3.60;;;3.50;;
934;SDS011;454;53.254;10.400;2022-08-11T09:53:47;3.27;;;3.17;;
934;SDS011;454;53.254;10.400;2022-08-11T09:56:17;2.90;;;2.80;;
934;SDS011;454;53.254;10.400;2022-08-11T09:59:03;3.10;;;2.90;;
934;SDS011;454;53.254;10.400;2022-08-11T10:01:32;2.80;;;2.80;;
934;SDS011;454;53.254;10.400;2022-08-11T10:04:07;3.20;;;3.07;;
934;SDS011;454;53.254;10.400;2022-08-11T10:06:39;3.03;;;2.93;;
934;SDS011;454;53.254;10.400;2022-08-11T10:09:24;3.13;;;3.03;;
934;SDS011;454;53.254;10.400;2022-08-11T10:11:56;3.00;;;2.90;;
934;SDS011;454;53.254;10.400;2022-08-11T10:14:24;3.60;;;3.50;;
934;SDS011;454;53.254;10.400;2022-08-11T10:17:10;3.10;;;2.97;;
934;SDS011;454;53.254;10.400;2022-08-11T10:19:39;3.67;;;3.47;;
934;SDS011;454;53.254;10.400;2022-08-11T10:22:08;3.27;;;3.27;;
934;SDS011;454;53.254;10.400;2022-08-11T10:24:53;3.53;;;3.40;;
934;SDS011;454;53.254;10.400;2022-08-11T10:27:41;3.77;;;3.40;;
934;SDS011;454;53.254;10.400;2022-08-11T10:30:09;3.43;;;3.23;;
934;SDS011;454;53.254;10.400;2022-08-11T10:32:54;3.47;;;3.37;;
934;SDS011;454;53.254;10.400;2022-08-11T10:35:40;3.03;;;3.00;;
934;SDS011;454;53.254;10.400;2022-08-11T10:38:09;2.90;;;2.90;;
934;SDS011;454;53.254;10.400;2022-08-11T10:40:39;3.27;;;3.00;;
934;SDS011;454;53.254;10.400;2022-08-11T10:43:11;3.70;;;3.40;;
934;SDS011;454;53.254;10.400;2022-08-11T10:45:40;3.40;;;3.20;;
934;SDS011;454;53.254;10.400;2022-08-11T10:48:27;4.60;;;3.00;;
934;SDS011;454;53.254;10.400;2022-08-11T10:50:55;3.00;;;2.90;;
934;SDS011;454;53.254;10.400;2022-08-11T10:53:38;2.70;;;2.70;;
934;SDS011;454;53.254;10.400;2022-08-11T10:56:24;3.10;;;2.93;;
934;SDS011;454;53.254;10.400;2022-08-11T10:59:13;2.93;;;2.53;;
934;SDS011;454;53.254;10.400;2022-08-11T11:01:41;2.70;;;2.70;;
934;SDS011;454;53.254;10.400;2022-08-11T11:04:11;2.70;;;2.70;;
934;SDS011;454;53.254;10.400;2022-08-11T11:06:40;3.43;;;3.23;;
934;SDS011;454;53.254;10.400;2022-08-11T11:09:15;3.17;;;3.00;;
934;SDS011;454;53.254;10.400;2022-08-11T11:11:46;2.70;;;2.60;;
934;SDS011;454;53.254;10.400;2022-08-11T11:14:35;3.20;;;3.00;;
934;SDS011;454;53.254;10.400;2022-08-11T11:17:23;2.60;;;2.50;;
934;SDS011;454;53.254;10.400;2022-08-11T11:20:13;2.67;;;2.67;;
934;SDS011;454;53.254;10.400;2022-08-11T11:22:43;2.63;;;2.60;;
934;SDS011;454;53.254;10.400;2022-08-11T11:25:20;3.20;;;3.00;;
934;SDS011;454;53.254;10.400;2022-08-11T11:28:00;2.97;;;2.90;;
934;SDS011;454;53.254;10.400;2022-08-11T11:30:58;2.97;;;2.90;;
934;SDS011;454;53.254;10.400;2022-08-11T11:33:39;2.73;;;2.63;;
934;SDS011;454;53.254;10.400;2022-08-11T11:36:20;3.20;;;3.10;;
934;SDS011;454;53.254;10.400;2022-08-11T11:38:53;2.90;;;2.80;;
934;SDS011;454;53.254;10.400;2022-08-11T11:41:21;2.90;;;2.80;;
934;SDS011;454;53.254;10.400;2022-08-11T11:43:52;2.60;;;2.50;;
934;SDS011;454;53.254;10.400;2022-08-11T11:46:21;3.60;;;3.40;;
934;SDS011;454;53.254;10.400;2022-08-11T11:48:50;3.80;;;2.70;;
934;SDS011;454;53.254;10.400;2022-08-11T11:51:17;3.10;;;3.00;;
934;SDS011;454;53.254;10.400;2022-08-11T11:53:45;3.03;;;2.93;;
934;SDS011;454;53.254;10.400;2022-08-11T11:56:12;2.90;;;2.80;;
934;SDS011;454;53.254;10.400;2022-08-11T11:58:40;3.30;;;3.30;;
934;SDS011;454;53.254;10.400;2022-08-11T12:01:26;3.10;;;3.00;;
934;SDS011;454;53.254;10.400;2022-08-11T12:03:54;2.80;;;2.70;;
934;SDS011;454;53.254;10.400;2022-08-11T12:06:22;3.00;;;2.80;;
934;SDS011;454;53.254;10.400;2022-08-11T12:08:52;2.73;;;2.63;;
934;SDS011;454;53.254;10.400;2022-08-11T12:11:21;3.07;;;2.93;;
934;SDS011;454;53.254;10.400;2022-08-11T12:14:07;3.10;;;2.90;;
934;SDS011;454;53.254;10.400;2022-08-11T12:16:36;3.17;;;2.97;;
934;SDS011;454;53.254;10.400;2022-08-11T12:19:05;2.20;;;2.10;;
934;SDS011;454;53.254;10.400;2022-08-11T12:21:35;2.80;;;2.67;;
934;SDS011;454;53.254;10.400;2022-08-11T12:24:23;2.70;;;2.60;;
934;SDS011;454;53.254;10.400;2022-08-11T12:27:07;2.40;;;2.40;;
934;SDS011;454;53.254;10.400;2022-08-11T12:29:46;2.40;;;2.40;;
934;SDS011;454;53.254;10.400;2022-08-11T12:32:16;2.40;;;2.30;;
934;SDS011;454;53.254;10.400;2022-08-11T12:34:44;1.90;;;1.90;;
934;SDS011;454;53.254;10.400;2022-08-11T12:37:12;2.70;;;2.60;;
934;SDS011;454;53.254;10.400;2022-08-11T12:39:41;3.13;;;2.93;;
934;SDS011;454;53.254;10.400;2022-08-11T12:42:29;2.60;;;2.60;;
934;SDS011;454;53.254;10.400;2022-08-11T12:45:16;2.00;;;2.00;;
934;SDS011;454;53.254;10.400;2022-08-11T12:47:56;2.20;;;2.10;;
934;SDS011;454;53.254;10.400;2022-08-11T12:50:45;2.40;;;2.30;;
934;SDS011;454;53.254;10.400;2022-08-11T12:53:35;2.53;;;2.30;;
934;SDS011;454;53.254;10.400;2022-08-11T12:56:07;2.93;;;2.30;;
934;SDS011;454;53.254;10.400;2022-08-11T12:58:52;2.27;;;2.27;;
934;SDS011;454;53.254;10.400;2022-08-11T13:01:38;2.10;;;2.10;;
934;SDS011;454;53.254;10.400;2022-08-11T13:04:23;2.80;;;2.70;;
934;SDS011;454;53.254;10.400;2022-08-11T13:07:09;2.00;;;2.00;;
934;SDS011;454;53.254;10.400;2022-08-11T13:09:37;4.60;;;2.97;;
934;SDS011;454;53.254;10.400;2022-08-11T13:12:06;2.10;;;2.10;;
934;SDS011;454;53.254;10.400;2022-08-11T13:14:51;2.07;;;2.07;;
934;SDS011;454;53.254;10.400;2022-08-11T13:17:19;2.40;;;2.20;;
934;SDS011;454;53.254;10.400;2022-08-11T13:19:48;1.87;;;1.80;;
934;SDS011;454;53.254;10.400;2022-08-11T13:22:17;1.77;;;1.67;;
934;SDS011;454;53.254;10.400;2022-08-11T13:24:46;2.27;;;2.27;;
934;SDS011;454;53.254;10.400;2022-08-11T13:27:14;1.80;;;1.80;;
934;SDS011;454;53.254;10.400;2022-08-11T13:29:43;2.00;;;2.00;;
934;SDS011;454;53.254;10.400;2022-08-11T13:32:11;2.00;;;2.00;;
934;SDS011;454;53.254;10.400;2022-08-11T13:34:39;2.40;;;1.70;;
934;SDS011;454;53.254;10.400;2022-08-11T13:37:09;1.63;;;1.63;;
934;SDS011;454;53.254;10.400;2022-08-11T13:39:38;1.70;;;1.70;;
934;SDS011;454;53.254;10.400;2022-08-11T13:42:08;1.80;;;1.80;;
934;SDS011;454;53.254;10.400;2022-08-11T13:44:36;2.10;;;2.00;;
934;SDS011;454;53.254;10.400;2022-08-11T13:47:04;1.53;;;1.53;;
934;SDS011;454;53.254;10.400;2022-08-11T13:49:34;1.40;;;1.40;;
934;SDS011;454;53.254;10.400;2022-08-11T13:52:02;1.93;;;1.70;;
934;SDS011;454;53.254;10.400;2022-08-11T13:54:33;2.40;;;1.60;;
934;SDS011;454;53.254;10.400;2022-08-11T13:57:04;1.73;;;1.73;;
934;SDS011;454;53.254;10.400;2022-08-11T13:59:32;2.40;;;2.30;;
934;SDS011;454;53.254;10.400;2022-08-11T14:02:00;2.33;;;2.17;;
934;SDS011;454;53.254;10.400;2022-08-11T14:04:29;1.50;;;1.50;;
934;SDS011;454;53.254;10.400;2022-08-11T14:07:01;1.80;;;1.80;;
934;SDS011;454;53.254;10.400;2022-08-11T14:09:34;1.87;;;1.87;;
934;SDS011;454;53.254;10.400;2022-08-11T14:12:05;2.30;;;1.80;;
934;SDS011;454;53.254;10.400;2022-08-11T14:14:54;1.50;;;1.50;;
934;SDS011;454;53.254;10.400;2022-08-11T14:17:24;1.40;;;1.40;;
934;SDS011;454;53.254;10.400;2022-08-11T14:19:52;1.70;;;1.70;;
934;SDS011;454;53.254;10.400;2022-08-11T14:22:19;1.70;;;1.70;;
934;SDS011;454;53.254;10.400;2022-08-11T14:24:47;1.60;;;1.50;;
934;SDS011;454;53.254;10.400;2022-08-11T14:27:15;1.50;;;1.40;;
934;SDS011;454;53.254;10.400;2022-08-11T14:29:42;1.60;;;1.60;;
934;SDS011;454;53.254;10.400;2022-08-11T14:32:12;1.83;;;1.73;;
934;SDS011;454;53.254;10.400;2022-08-11T14:34:40;1.53;;;1.37;;
934;SDS011;454;53.254;10.400;2022-08-11T14:37:08;1.70;;;1.70;;
934;SDS011;454;53.254;10.400;2022-08-11T14:39:39;1.50;;;1.50;;
934;SDS011;454;53.254;10.400;2022-08-11T14:42:09;1.83;;;1.73;;
934;SDS011;454;53.254;10.400;2022-08-11T14:44:58;1.23;;;1.23;;
934;SDS011;454;53.254;10.400;2022-08-11T14:47:42;1.80;;;1.70;;
934;SDS011;454;53.254;10.400;2022-08-11T14:50:14;1.60;;;1.50;;
934;SDS011;454;53.254;10.400;2022-08-11T14:52:44;1.40;;;1.30;;
934;SDS011;454;53.254;10.400;2022-08-11T14:55:14;2.40;;;1.50;;
934;SDS011;454;53.254;10.400;2022-08-11T14:58:01;3.97;;;1.80;;
934;SDS011;454;53.254;10.400;2022-08-11T15:00:28;1.27;;;1.23;;
934;SDS011;454;53.254;10.400;2022-08-11T15:02:56;1.20;;;1.20;;
934;SDS011;454;53.254;10.400;2022-08-11T15:05:37;1.60;;;1.60;;
934;SDS011;454;53.254;10.400;2022-08-11T15:08:08;2.00;;;1.80;;
934;SDS011;454;53.254;10.400;2022-08-11T15:10:35;1.90;;;1.30;;
934;SDS011;454;53.254;10.400;2022-08-11T15:13:03;1.33;;;1.30;;
934;SDS011;454;53.254;10.400;2022-08-11T15:15:30;1.20;;;1.20;;
934;SDS011;454;53.254;10.400;2022-08-11T15:18:17;1.40;;;1.40;;
934;SDS011;454;53.254;10.400;2022-08-11T15:20:48;1.90;;;1.90;;
934;SDS011;454;53.254;10.400;2022-08-11T15:23:33;1.30;;;1.30;;
934;SDS011;454;53.254;10.400;2022-08-11T15:26:18;2.10;;;1.40;;
934;SDS011;454;53.254;10.400;2022-08-11T15:29:12;1.63;;;1.40;;
934;SDS011;454;53.254;10.400;2022-08-11T15:31:57;1.63;;;1.57;;
934;SDS011;454;53.254;10.400;2022-08-11T15:34:52;1.60;;;1.50;;
934;SDS011;454;53.254;10.400;2022-08-11T15:37:41;1.47;;;1.47;;
934;SDS011;454;53.254;10.400;2022-08-11T15:40:11;2.53;;;1.50;;
934;SDS011;454;53.254;10.400;2022-08-11T15:43:01;1.43;;;1.43;;
934;SDS011;454;53.254;10.400;2022-08-11T15:45:51;1.80;;;1.80;;
934;SDS011;454;53.254;10.400;2022-08-11T15:48:24;1.30;;;1.30;;
934;SDS011;454;53.254;10.400;2022-08-11T15:50:55;1.83;;;1.50;;
934;SDS011;454;53.254;10.400;2022-08-11T15:53:25;2.30;;;2.30;;
934;SDS011;454;53.254;10.400;2022-08-11T15:55:58;1.50;;;1.50;;
934;SDS011;454;53.254;10.400;2022-08-11T15:58:29;1.53;;;1.53;;
934;SDS011;454;53.254;10.400;2022-08-11T16:01:16;1.63;;;1.63;;
934;SDS011;454;53.254;10.400;2022-08-11T16:04:05;1.80;;;1.70;;
934;SDS011;454;53.254;10.400;2022-08-11T16:06:39;2.30;;;1.73;;
934;SDS011;454;53.254;10.400;2022-08-11T16:09:09;2.83;;;1.60;;
934;SDS011;454;53.254;10.400;2022-08-11T16:11:39;2.20;;;2.00;;
934;SDS011;454;53.254;10.400;2022-08-11T16:14:07;1.67;;;1.67;;
934;SDS011;454;53.254;10.400;2022-08-11T16:16:56;1.90;;;1.90;;
934;SDS011;454;53.254;10.400;2022-08-11T16:19:24;1.40;;;1.40;;
934;SDS011;454;53.254;10.400;2022-08-11T16:21:58;1.33;;;1.33;;
934;SDS011;454;53.254;10.400;2022-08-11T16:24:26;1.67;;;1.67;;
934;SDS011;454;53.254;10.400;2022-08-11T16:26:54;1.83;;;1.30;;
934;SDS011;454;53.254;10.400;2022-08-11T16:29:23;1.70;;;1.60;;
934;SDS011;454;53.254;10.400;2022-08-11T16:31:51;1.40;;;1.40;;
934;SDS011;454;53.254;10.400;2022-08-11T16:34:39;1.90;;;1.70;;
934;SDS011;454;53.254;10.400;2022-08-11T16:37:24;3.03;;;1.40;;
934;SDS011;454;53.254;10.400;2022-08-11T16:40:10;1.80;;;1.60;;
934;SDS011;454;53.254;10.400;2022-08-11T16:42:39;1.70;;;1.60;;
934;SDS011;454;53.254;10.400;2022-08-11T16:45:39;1.63;;;1.63;;
934;SDS011;454;53.254;10.400;2022-08-11T16:48:33;2.40;;;1.77;;
934;SDS011;454;53.254;10.400;2022-08-11T16:51:03;1.50;;;1.50;;
934;SDS011;454;53.254;10.400;2022-08-11T16:53:31;1.50;;;1.50;;
934;SDS011;454;53.254;10.400;2022-08-11T16:55:58;1.30;;;1.30;;
934;SDS011;454;53.254;10.400;2022-08-11T16:58:29;1.50;;;1.50;;
934;SDS011;454;53.254;10.400;2022-08-11T17:01:15;3.10;;;1.60;;
934;SDS011;454;53.254;10.400;2022-08-11T17:03:47;1.70;;;1.70;;
934;SDS011;454;53.254;10.400;2022-08-11T17:06:38;1.30;;;1.30;;
934;SDS011;454;53.254;10.400;2022-08-11T17:09:26;1.73;;;1.63;;
934;SDS011;454;53.254;10.400;2022-08-11T17:12:14;1.57;;;1.57;;
934;SDS011;454;53.254;10.400;2022-08-11T17:15:03;1.17;;;1.17;;
934;SDS011;454;53.254;10.400;2022-08-11T17:17:54;2.47;;;1.63;;
934;SDS011;454;53.254;10.400;2022-08-11T17:20:23;1.33;;;1.23;;
934;SDS011;454;53.254;10.400;2022-08-11T17:22:53;1.53;;;1.50;;
934;SDS011;454;53.254;10.400;2022-08-11T17:25:38;1.50;;;1.40;;
934;SDS011;454;53.254;10.400;2022-08-11T17:28:06;1.90;;;1.20;;
934;SDS011;454;53.254;10.400;2022-08-11T17:30:35;1.60;;;1.50;;
934;SDS011;454;53.254;10.400;2022-08-11T17:33:21;1.50;;;1.50;;
934;SDS011;454;53.254;10.400;2022-08-11T17:36:06;1.37;;;1.27;;
934;SDS011;454;53.254;10.400;2022-08-11T17:38:36;1.77;;;1.77;;
934;SDS011;454;53.254;10.400;2022-08-11T17:41:04;1.50;;;1.37;;
934;SDS011;454;53.254;10.400;2022-08-11T17:43:50;2.60;;;1.33;;
934;SDS011;454;53.254;10.400;2022-08-11T17:46:37;1.43;;;1.43;;
934;SDS011;454;53.254;10.400;2022-08-11T17:49:22;2.17;;;1.80;;
934;SDS011;454;53.254;10.400;2022-08-11T17:51:51;1.93;;;1.93;;
934;SDS011;454;53.254;10.400;2022-08-11T17:54:37;1.57;;;1.47;;
934;SDS011;454;53.254;10.400;2022-08-11T17:57:23;2.33;;;2.13;;
934;SDS011;454;53.254;10.400;2022-08-11T18:00:09;2.43;;;1.70;;
934;SDS011;454;53.254;10.400;2022-08-11T18:02:38;1.40;;;1.40;;
934;SDS011;454;53.254;10.400;2022-08-11T18:05:24;1.70;;;1.60;;
934;SDS011;454;53.254;10.400;2022-08-11T18:07:53;1.60;;;1.50;;
934;SDS011;454;53.254;10.400;2022-08-11T18:10:41;2.00;;;1.90;;
934;SDS011;454;53.254;10.400;2022-08-11T18:13:28;1.60;;;1.60;;
934;SDS011;454;53.254;10.400;2022-08-11T18:16:15;1.60;;;1.60;;
934;SDS011;454;53.254;10.400;2022-08-11T18:19:01;1.47;;;1.30;;
934;SDS011;454;53.254;10.400;2022-08-11T18:21:45;1.20;;;1.20;;
934;SDS011;454;53.254;10.400;2022-08-11T18:24:32;1.50;;;1.50;;
934;SDS011;454;53.254;10.400;2022-08-11T18:27:22;1.70;;;1.70;;
934;SDS011;454;53.254;10.400;2022-08-11T18:30:10;1.13;;;1.13;;
934;SDS011;454;53.254;10.400;2022-08-11T18:32:55;2.03;;;1.73;;
934;SDS011;454;53.254;10.400;2022-08-11T18:35:43;2.10;;;1.37;;
934;SDS011;454;53.254;10.400;2022-08-11T18:38:32;1.80;;;1.40;;
934;SDS011;454;53.254;10.400;2022-08-11T18:41:18;1.60;;;1.60;;
934;SDS011;454;53.254;10.400;2022-08-11T18:44:05;1.97;;;1.63;;
934;SDS011;454;53.254;10.400;2022-08-11T18:46:51;1.50;;;1.40;;
934;SDS011;454;53.254;10.400;2022-08-11T18:49:38;2.23;;;1.70;;
934;SDS011;454;53.254;10.400;2022-08-11T18:52:25;2.00;;;1.70;;
934;SDS011;454;53.254;10.400;2022-08-11T18:55:12;1.60;;;1.60;;
934;SDS011;454;53.254;10.400;2022-08-11T18:57:59;2.40;;;1.80;;
934;SDS011;454;53.254;10.400;2022-08-11T19:00:49;1.83;;;1.73;;
934;SDS011;454;53.254;10.400;2022-08-11T19:03:37;1.43;;;1.43;;
934;SDS011;454;53.254;10.400;2022-08-11T19:06:23;2.83;;;1.47;;
934;SDS011;454;53.254;10.400;2022-08-11T19:09:11;1.90;;;1.80;;
934;SDS011;454;53.254;10.400;2022-08-11T19:11:57;4.57;;;2.00;;
934;SDS011;454;53.254;10.400;2022-08-11T19:14:43;1.73;;;1.63;;
934;SDS011;454;53.254;10.400;2022-08-11T19:17:30;2.10;;;2.00;;
934;SDS011;454;53.254;10.400;2022-08-11T19:20:18;1.50;;;1.50;;
934;SDS011;454;53.254;10.400;2022-08-11T19:23:05;1.27;;;1.27;;
934;SDS011;454;53.254;10.400;2022-08-11T19:25:52;3.57;;;1.63;;
934;SDS011;454;53.254;10.400;2022-08-11T19:28:38;2.60;;;2.40;;
934;SDS011;454;53.254;10.400;2022-08-11T19:31:24;2.00;;;1.80;;
934;SDS011;454;53.254;10.400;2022-08-11T19:34:11;2.17;;;1.90;;
934;SDS011;454;53.254;10.400;2022-08-11T19:36:56;5.13;;;2.20;;
934;SDS011;454;53.254;10.400;2022-08-11T19:39:41;3.53;;;2.00;;
934;SDS011;454;53.254;10.400;2022-08-11T19:42:26;1.97;;;1.77;;
934;SDS011;454;53.254;10.400;2022-08-11T19:45:11;6.73;;;2.07;;
934;SDS011;454;53.254;10.400;2022-08-11T19:47:57;2.47;;;2.27;;
934;SDS011;454;53.254;10.400;2022-08-11T19:50:43;2.13;;;1.93;;
934;SDS011;454;53.254;10.400;2022-08-11T19:53:28;2.20;;;2.03;;
934;SDS011;454;53.254;10.400;2022-08-11T19:56:14;2.10;;;2.00;;
934;SDS011;454;53.254;10.400;2022-08-11T19:58:59;3.53;;;3.23;;
934;SDS011;454;53.254;10.400;2022-08-11T20:01:45;1.80;;;1.80;;
934;SDS011;454;53.254;10.400;2022-08-11T20:04:29;2.03;;;2.00;;
934;SDS011;454;53.254;10.400;2022-08-11T20:07:14;2.73;;;1.97;;
934;SDS011;454;53.254;10.400;2022-08-11T20:10:00;2.33;;;2.10;;
934;SDS011;454;53.254;10.400;2022-08-11T20:12:47;3.30;;;1.63;;
934;SDS011;454;53.254;10.400;2022-08-11T20:15:32;5.50;;;2.00;;
934;SDS011;454;53.254;10.400;2022-08-11T20:18:18;2.07;;;2.07;;
934;SDS011;454;53.254;10.400;2022-08-11T20:21:05;1.77;;;1.77;;
934;SDS011;454;53.254;10.400;2022-08-11T20:23:52;1.83;;;1.73;;
934;SDS011;454;53.254;10.400;2022-08-11T20:26:39;2.07;;;2.00;;
934;SDS011;454;53.254;10.400;2022-08-11T20:29:23;1.80;;;1.80;;
934;SDS011;454;53.254;10.400;2022-08-11T20:32:10;1.90;;;1.90;;
934;SDS011;454;53.254;10.400;2022-08-11T20:34:57;1.90;;;1.80;;
934;SDS011;454;53.254;10.400;2022-08-11T20:37:42;1.90;;;1.90;;
934;SDS011;454;53.254;10.400;2022-08-11T20:40:29;1.87;;;1.80;;
934;SDS011;454;53.254;10.400;2022-08-11T20:43:14;3.20;;;1.80;;
934;SDS011;454;53.254;10.400;2022-08-11T20:46:00;4.73;;;2.50;;
934;SDS011;454;53.254;10.400;2022-08-11T20:48:46;3.23;;;2.47;;
934;SDS011;454;53.254;10.400;2022-08-11T20:51:34;2.07;;;1.97;;
934;SDS011;454;53.254;10.400;2022-08-11T20:54:19;2.00;;;1.90;;
934;SDS011;454;53.254;10.400;2022-08-11T20:57:06;1.87;;;1.87;;
934;SDS011;454;53.254;10.400;2022-08-11T20:59:51;1.97;;;1.87;;
